sensor_id;sensor_type;location;lat;lon;timestamp;pressure;altitude;pressure_sealevel;temperature;humidity
78839;BME280;68405;47.190;27.558;2023-07-02T00:00:35;98795.02;;;20.12;47.69
78839;BME280;68405;47.190;27.558;2023-07-02T00:03:26;98795.36;;;20.07;48.48
78839;BME280;68405;47.190;27.558;2023-07-02T00:05:55;98789.44;;;20.02;47.43
78839;BME280;68405;47.190;27.558;2023-07-02T00:08:25;98793.61;;;19.99;48.32
78839;BME280;68405;47.190;27.558;2023-07-02T00:10:54;98790.45;;;19.95;47.41
78839;BME280;68405;47.190;27.558;2023-07-02T00:13:23;98788.00;;;19.91;48.16
78839;BME280;68405;47.190;27.558;2023-07-02T00:15:52;98791.56;;;19.87;48.38
78839;BME280;68405;47.190;27.558;2023-07-02T00:18:21;98789.09;;;19.82;49.53
78839;BME280;68405;47.190;27.558;2023-07-02T00:20:50;98789.91;;;19.79;48.93
78839;BME280;68405;47.190;27.558;2023-07-02T00:23:18;98787.66;;;19.77;49.33
78839;BME280;68405;47.190;27.558;2023-07-02T00:25:48;98783.00;;;19.74;48.53
78839;BME280;68405;47.190;27.558;2023-07-02T00:28:17;98783.42;;;19.71;48.90
78839;BME280;68405;47.190;27.558;2023-07-02T00:30:46;98785.63;;;19.70;49.31
78839;BME280;68405;47.190;27.558;2023-07-02T00:33:16;98781.54;;;19.68;50.40
78839;BME280;68405;47.190;27.558;2023-07-02T00:35:45;98778.14;;;19.65;49.36
78839;BME280;68405;47.190;27.558;2023-07-02T00:38:14;98776.48;;;19.62;49.67
78839;BME280;68405;47.190;27.558;2023-07-02T00:40:43;98778.59;;;19.60;50.10
78839;BME280;68405;47.190;27.558;2023-07-02T00:43:12;98769.97;;;19.58;50.77
78839;BME280;68405;47.190;27.558;2023-07-02T00:45:41;98775.16;;;19.61;50.35
78839;BME280;68405;47.190;27.558;2023-07-02T00:48:10;98772.85;;;19.63;51.32
78839;BME280;68405;47.190;27.558;2023-07-02T00:50:40;98772.36;;;19.64;50.64
78839;BME280;68405;47.190;27.558;2023-07-02T00:53:09;98773.65;;;19.68;51.71
78839;BME280;68405;47.190;27.558;2023-07-02T00:55:38;98772.05;;;19.70;50.97
78839;BME280;68405;47.190;27.558;2023-07-02T00:58:07;98770.33;;;19.67;50.57
78839;BME280;68405;47.190;27.558;2023-07-02T01:00:37;98771.63;;;19.64;51.31
78839;BME280;68405;47.190;27.558;2023-07-02T01:03:06;98772.25;;;19.62;51.48
78839;BME280;68405;47.190;27.558;2023-07-02T01:05:35;98769.49;;;19.59;51.25
78839;BME280;68405;47.190;27.558;2023-07-02T01:08:04;98770.05;;;19.59;52.13
78839;BME280;68405;47.190;27.558;2023-07-02T01:10:33;98772.55;;;19.58;51.55
78839;BME280;68405;47.190;27.558;2023-07-02T01:13:06;98776.67;;;19.56;52.11
78839;BME280;68405;47.190;27.558;2023-07-02T01:15:39;98777.31;;;19.53;52.48
78839;BME280;68405;47.190;27.558;2023-07-02T01:18:08;98777.88;;;19.50;52.57
78839;BME280;68405;47.190;27.558;2023-07-02T01:20:38;98773.18;;;19.47;52.10
78839;BME280;68405;47.190;27.558;2023-07-02T01:23:07;98774.06;;;19.45;51.71
78839;BME280;68405;47.190;27.558;2023-07-02T01:25:37;98776.55;;;19.45;52.06
78839;BME280;68405;47.190;27.558;2023-07-02T01:28:06;98778.58;;;19.44;51.82
78839;BME280;68405;47.190;27.558;2023-07-02T01:30:35;98773.55;;;19.43;52.02
78839;BME280;68405;47.190;27.558;2023-07-02T01:33:04;98768.60;;;19.44;51.95
78839;BME280;68405;47.190;27.558;2023-07-02T01:35:33;98764.07;;;19.43;52.57
78839;BME280;68405;47.190;27.558;2023-07-02T01:38:02;98765.15;;;19.43;53.29
78839;BME280;68405;47.190;27.558;2023-07-02T01:40:31;98764.06;;;19.43;53.89
78839;BME280;68405;47.190;27.558;2023-07-02T01:43:00;98768.13;;;19.43;53.70
78839;BME280;68405;47.190;27.558;2023-07-02T01:45:29;98766.21;;;19.41;52.75
78839;BME280;68405;47.190;27.558;2023-07-02T01:47:57;98762.86;;;19.39;52.98
78839;BME280;68405;47.190;27.558;2023-07-02T01:50:27;98760.85;;;19.35;53.15
78839;BME280;68405;47.190;27.558;2023-07-02T01:52:56;98765.39;;;19.32;52.83
78839;BME280;68405;47.190;27.558;2023-07-02T01:55:24;98765.71;;;19.28;52.34
78839;BME280;68405;47.190;27.558;2023-07-02T01:57:53;98766.23;;;19.25;53.55
78839;BME280;68405;47.190;27.558;2023-07-02T02:00:22;98769.45;;;19.22;52.81
78839;BME280;68405;47.190;27.558;2023-07-02T02:02:52;98766.44;;;19.20;53.16
78839;BME280;68405;47.190;27.558;2023-07-02T02:05:21;98770.36;;;19.17;53.20
78839;BME280;68405;47.190;27.558;2023-07-02T02:07:50;98767.30;;;19.16;54.30
78839;BME280;68405;47.190;27.558;2023-07-02T02:10:19;98770.60;;;19.15;53.50
78839;BME280;68405;47.190;27.558;2023-07-02T02:12:48;98766.48;;;19.12;53.05
78839;BME280;68405;47.190;27.558;2023-07-02T02:15:18;98772.57;;;19.11;53.81
78839;BME280;68405;47.190;27.558;2023-07-02T02:17:47;98773.29;;;19.08;54.18
78839;BME280;68405;47.190;27.558;2023-07-02T02:20:16;98769.02;;;19.09;54.25
78839;BME280;68405;47.190;27.558;2023-07-02T02:22:45;98772.98;;;19.08;53.83
78839;BME280;68405;47.190;27.558;2023-07-02T02:25:14;98773.21;;;19.05;53.84
78839;BME280;68405;47.190;27.558;2023-07-02T02:27:43;98769.05;;;19.02;53.72
78839;BME280;68405;47.190;27.558;2023-07-02T02:30:13;98765.63;;;18.99;53.97
78839;BME280;68405;47.190;27.558;2023-07-02T02:32:42;98765.89;;;18.96;53.77
78839;BME280;68405;47.190;27.558;2023-07-02T02:35:11;98769.69;;;18.93;53.79
78839;BME280;68405;47.190;27.558;2023-07-02T02:37:40;98768.50;;;18.90;54.07
78839;BME280;68405;47.190;27.558;2023-07-02T02:40:11;98767.20;;;18.89;54.10
78839;BME280;68405;47.190;27.558;2023-07-02T02:42:40;98766.19;;;18.88;55.01
78839;BME280;68405;47.190;27.558;2023-07-02T02:45:10;98767.92;;;18.88;55.22
78839;BME280;68405;47.190;27.558;2023-07-02T02:47:39;98766.80;;;18.89;54.55
78839;BME280;68405;47.190;27.558;2023-07-02T02:50:09;98767.41;;;18.91;54.70
78839;BME280;68405;47.190;27.558;2023-07-02T02:52:41;98766.73;;;18.93;54.85
78839;BME280;68405;47.190;27.558;2023-07-02T02:55:11;98767.46;;;18.96;54.92
78839;BME280;68405;47.190;27.558;2023-07-02T02:57:40;98773.23;;;19.01;54.81
78839;BME280;68405;47.190;27.558;2023-07-02T03:00:13;98772.66;;;19.06;54.89
78839;BME280;68405;47.190;27.558;2023-07-02T03:02:42;98773.36;;;19.11;54.57
78839;BME280;68405;47.190;27.558;2023-07-02T03:05:11;98773.03;;;19.17;54.85
78839;BME280;68405;47.190;27.558;2023-07-02T03:07:40;98773.02;;;19.23;54.83
78839;BME280;68405;47.190;27.558;2023-07-02T03:10:10;98775.11;;;19.30;54.80
78839;BME280;68405;47.190;27.558;2023-07-02T03:12:39;98774.73;;;19.36;54.89
78839;BME280;68405;47.190;27.558;2023-07-02T03:15:09;98775.02;;;19.43;55.06
78839;BME280;68405;47.190;27.558;2023-07-02T03:17:38;98773.70;;;19.50;54.75
78839;BME280;68405;47.190;27.558;2023-07-02T03:20:09;98771.55;;;19.56;54.64
78839;BME280;68405;47.190;27.558;2023-07-02T03:22:38;98774.48;;;19.63;55.09
78839;BME280;68405;47.190;27.558;2023-07-02T03:25:08;98775.04;;;19.68;54.88
78839;BME280;68405;47.190;27.558;2023-07-02T03:27:37;98768.47;;;19.75;54.89
78839;BME280;68405;47.190;27.558;2023-07-02T03:30:08;98771.02;;;19.81;54.82
78839;BME280;68405;47.190;27.558;2023-07-02T03:32:37;98775.02;;;19.88;54.88
78839;BME280;68405;47.190;27.558;2023-07-02T03:35:08;98774.47;;;19.94;54.85
78839;BME280;68405;47.190;27.558;2023-07-02T03:37:37;98775.22;;;20.00;54.98
78839;BME280;68405;47.190;27.558;2023-07-02T03:40:08;98774.35;;;20.05;54.51
78839;BME280;68405;47.190;27.558;2023-07-02T03:42:37;98771.38;;;20.11;54.72
78839;BME280;68405;47.190;27.558;2023-07-02T03:45:08;98771.16;;;20.17;54.83
78839;BME280;68405;47.190;27.558;2023-07-02T03:47:37;98765.18;;;20.26;54.56
78839;BME280;68405;47.190;27.558;2023-07-02T03:50:08;98770.62;;;20.35;55.07
78839;BME280;68405;47.190;27.558;2023-07-02T03:52:37;98774.77;;;20.45;54.20
78839;BME280;68405;47.190;27.558;2023-07-02T03:55:08;98777.32;;;20.61;54.82
78839;BME280;68405;47.190;27.558;2023-07-02T03:57:37;98776.34;;;20.77;54.50
78839;BME280;68405;47.190;27.558;2023-07-02T04:00:08;98779.59;;;21.21;54.03
78839;BME280;68405;47.190;27.558;2023-07-02T04:02:39;98771.73;;;23.01;51.45
78839;BME280;68405;47.190;27.558;2023-07-02T04:05:08;98774.34;;;25.25;47.24
78839;BME280;68405;47.190;27.558;2023-07-02T04:07:37;98777.64;;;27.19;45.35
78839;BME280;68405;47.190;27.558;2023-07-02T04:10:08;98779.15;;;28.88;42.87
78839;BME280;68405;47.190;27.558;2023-07-02T04:12:37;98778.20;;;30.43;39.31
78839;BME280;68405;47.190;27.558;2023-07-02T04:15:08;98778.02;;;31.73;38.39
78839;BME280;68405;47.190;27.558;2023-07-02T04:17:37;98784.79;;;32.92;36.29
78839;BME280;68405;47.190;27.558;2023-07-02T04:20:09;98785.17;;;34.05;36.80
78839;BME280;68405;47.190;27.558;2023-07-02T04:22:38;98781.71;;;35.06;30.22
78839;BME280;68405;47.190;27.558;2023-07-02T04:25:08;98778.39;;;35.93;30.71
78839;BME280;68405;47.190;27.558;2023-07-02T04:27:37;98778.45;;;36.87;30.26
78839;BME280;68405;47.190;27.558;2023-07-02T04:30:08;98781.07;;;37.47;27.58
78839;BME280;68405;47.190;27.558;2023-07-02T04:32:38;98780.36;;;38.25;24.49
78839;BME280;68405;47.190;27.558;2023-07-02T04:35:08;98782.21;;;38.83;26.12
78839;BME280;68405;47.190;27.558;2023-07-02T04:37:38;98777.02;;;39.49;23.04
78839;BME280;68405;47.190;27.558;2023-07-02T04:40:09;98776.97;;;40.17;22.04
78839;BME280;68405;47.190;27.558;2023-07-02T04:42:38;98782.09;;;40.83;22.11
78839;BME280;68405;47.190;27.558;2023-07-02T04:45:09;98786.65;;;41.49;21.54
78839;BME280;68405;47.190;27.558;2023-07-02T04:47:38;98789.80;;;42.19;20.25
78839;BME280;68405;47.190;27.558;2023-07-02T04:50:08;98790.09;;;42.83;20.43
78839;BME280;68405;47.190;27.558;2023-07-02T04:52:37;98791.16;;;43.27;19.21
78839;BME280;68405;47.190;27.558;2023-07-02T04:55:07;98791.32;;;43.57;17.42
78839;BME280;68405;47.190;27.558;2023-07-02T04:57:36;98786.41;;;43.86;17.00
78839;BME280;68405;47.190;27.558;2023-07-02T05:00:07;98788.14;;;44.40;17.47
78839;BME280;68405;47.190;27.558;2023-07-02T05:02:36;98790.14;;;44.91;16.29
78839;BME280;68405;47.190;27.558;2023-07-02T05:05:06;98792.42;;;45.35;15.52
78839;BME280;68405;47.190;27.558;2023-07-02T05:07:35;98792.20;;;45.81;15.57
78839;BME280;68405;47.190;27.558;2023-07-02T05:10:05;98793.91;;;45.61;15.00
78839;BME280;68405;47.190;27.558;2023-07-02T05:12:34;98793.25;;;45.73;15.38
78839;BME280;68405;47.190;27.558;2023-07-02T05:15:04;98794.27;;;45.65;14.15
78839;BME280;68405;47.190;27.558;2023-07-02T05:17:33;98797.57;;;45.58;14.43
78839;BME280;68405;47.190;27.558;2023-07-02T05:20:09;98799.01;;;45.52;14.04
78839;BME280;68405;47.190;27.558;2023-07-02T05:22:38;98798.89;;;45.32;14.45
78839;BME280;68405;47.190;27.558;2023-07-02T05:25:09;98799.44;;;45.80;14.87
78839;BME280;68405;47.190;27.558;2023-07-02T05:27:38;98804.17;;;46.24;14.18
78839;BME280;68405;47.190;27.558;2023-07-02T05:30:08;98806.60;;;46.62;13.68
78839;BME280;68405;47.190;27.558;2023-07-02T05:32:38;98806.03;;;47.20;13.86
78839;BME280;68405;47.190;27.558;2023-07-02T05:35:09;98812.70;;;47.63;12.94
78839;BME280;68405;47.190;27.558;2023-07-02T05:37:37;98810.13;;;48.39;13.06
78839;BME280;68405;47.190;27.558;2023-07-02T05:40:09;98808.89;;;49.15;12.71
78839;BME280;68405;47.190;27.558;2023-07-02T05:42:38;98813.09;;;49.52;11.50
78839;BME280;68405;47.190;27.558;2023-07-02T05:45:08;98812.71;;;49.28;11.81
78839;BME280;68405;47.190;27.558;2023-07-02T05:47:37;98809.54;;;48.99;11.49
78839;BME280;68405;47.190;27.558;2023-07-02T05:50:10;98809.89;;;49.17;12.27
78839;BME280;68405;47.190;27.558;2023-07-02T05:52:38;98807.29;;;49.56;11.50
78839;BME280;68405;47.190;27.558;2023-07-02T05:55:09;98810.11;;;50.14;11.04
78839;BME280;68405;47.190;27.558;2023-07-02T05:57:38;98812.39;;;50.39;11.14
78839;BME280;68405;47.190;27.558;2023-07-02T06:00:10;98814.27;;;50.74;10.47
78839;BME280;68405;47.190;27.558;2023-07-02T06:02:39;98813.74;;;50.93;10.85
78839;BME280;68405;47.190;27.558;2023-07-02T06:05:09;98814.43;;;50.74;10.01
78839;BME280;68405;47.190;27.558;2023-07-02T06:07:38;98815.20;;;51.14;10.17
78839;BME280;68405;47.190;27.558;2023-07-02T06:10:07;98815.55;;;51.24;9.50
78839;BME280;68405;47.190;27.558;2023-07-02T06:12:37;98817.04;;;51.18;9.86
78839;BME280;68405;47.190;27.558;2023-07-02T06:15:08;98819.61;;;51.03;10.01
78839;BME280;68405;47.190;27.558;2023-07-02T06:17:37;98819.64;;;51.29;9.57
78839;BME280;68405;47.190;27.558;2023-07-02T06:20:08;98820.02;;;51.53;9.67
78839;BME280;68405;47.190;27.558;2023-07-02T06:22:37;98819.20;;;52.03;9.71
78839;BME280;68405;47.190;27.558;2023-07-02T06:25:08;98822.85;;;52.36;9.27
78839;BME280;68405;47.190;27.558;2023-07-02T06:27:37;98822.24;;;52.03;8.82
78839;BME280;68405;47.190;27.558;2023-07-02T06:30:08;98823.56;;;51.78;8.65
78839;BME280;68405;47.190;27.558;2023-07-02T06:32:37;98825.63;;;51.99;9.03
78839;BME280;68405;47.190;27.558;2023-07-02T06:35:08;98827.92;;;52.56;9.03
78839;BME280;68405;47.190;27.558;2023-07-02T06:37:37;98822.11;;;53.15;8.65
78839;BME280;68405;47.190;27.558;2023-07-02T06:40:08;98819.70;;;53.25;8.70
78839;BME280;68405;47.190;27.558;2023-07-02T06:42:37;98817.98;;;53.08;8.52
78839;BME280;68405;47.190;27.558;2023-07-02T06:45:08;98815.48;;;52.67;8.50
78839;BME280;68405;47.190;27.558;2023-07-02T06:47:36;98812.09;;;53.16;8.79
78839;BME280;68405;47.190;27.558;2023-07-02T06:50:06;98810.02;;;53.99;8.49
78839;BME280;68405;47.190;27.558;2023-07-02T06:52:35;98812.40;;;54.31;8.02
78839;BME280;68405;47.190;27.558;2023-07-02T06:55:06;98811.95;;;54.43;7.86
78839;BME280;68405;47.190;27.558;2023-07-02T06:57:34;98813.70;;;53.88;7.79
78839;BME280;68405;47.190;27.558;2023-07-02T07:00:04;98809.48;;;53.43;7.93
78839;BME280;68405;47.190;27.558;2023-07-02T07:02:34;98811.98;;;53.88;7.91
78839;BME280;68405;47.190;27.558;2023-07-02T07:05:04;98812.58;;;54.42;7.37
78839;BME280;68405;47.190;27.558;2023-07-02T07:07:33;98813.40;;;54.70;7.24
78839;BME280;68405;47.190;27.558;2023-07-02T07:10:02;98810.85;;;54.82;7.56
78839;BME280;68405;47.190;27.558;2023-07-02T07:12:31;98811.12;;;54.61;7.19
78839;BME280;68405;47.190;27.558;2023-07-02T07:15:00;98810.19;;;54.92;7.20
78839;BME280;68405;47.190;27.558;2023-07-02T07:17:30;98810.54;;;55.54;6.98
78839;BME280;68405;47.190;27.558;2023-07-02T07:19:59;98810.93;;;55.61;6.82
78839;BME280;68405;47.190;27.558;2023-07-02T07:22:30;98810.47;;;55.53;6.96
78839;BME280;68405;47.190;27.558;2023-07-02T07:24:59;98808.48;;;55.76;6.98
78839;BME280;68405;47.190;27.558;2023-07-02T07:27:28;98806.27;;;55.57;6.60
78839;BME280;68405;47.190;27.558;2023-07-02T07:29:56;98802.16;;;54.90;6.66
78839;BME280;68405;47.190;27.558;2023-07-02T07:32:25;98803.34;;;54.86;6.76
78839;BME280;68405;47.190;27.558;2023-07-02T07:34:54;98799.17;;;54.91;6.64
78839;BME280;68405;47.190;27.558;2023-07-02T07:37:23;98797.76;;;55.10;6.77
78839;BME280;68405;47.190;27.558;2023-07-02T07:39:53;98801.38;;;55.21;6.76
78839;BME280;68405;47.190;27.558;2023-07-02T07:42:22;98799.12;;;55.11;6.56
78839;BME280;68405;47.190;27.558;2023-07-02T07:44:50;98800.20;;;54.89;6.80
78839;BME280;68405;47.190;27.558;2023-07-02T07:47:19;98797.49;;;55.03;6.68
78839;BME280;68405;47.190;27.558;2023-07-02T07:49:48;98797.44;;;55.05;6.68
78839;BME280;68405;47.190;27.558;2023-07-02T07:52:17;98799.33;;;55.43;6.70
78839;BME280;68405;47.190;27.558;2023-07-02T07:54:45;98800.77;;;55.43;6.31
78839;BME280;68405;47.190;27.558;2023-07-02T07:57:15;98802.27;;;55.80;6.51
78839;BME280;68405;47.190;27.558;2023-07-02T07:59:43;98798.59;;;55.87;6.20
78839;BME280;68405;47.190;27.558;2023-07-02T08:02:12;98793.83;;;55.24;6.19
78839;BME280;68405;47.190;27.558;2023-07-02T08:04:41;98793.20;;;54.46;6.68
78839;BME280;68405;47.190;27.558;2023-07-02T08:07:10;98789.59;;;53.92;6.85
78839;BME280;68405;47.190;27.558;2023-07-02T08:09:39;98789.42;;;53.69;7.01
78839;BME280;68405;47.190;27.558;2023-07-02T08:12:09;98789.75;;;53.55;7.31
78839;BME280;68405;47.190;27.558;2023-07-02T08:14:38;98788.88;;;53.09;7.00
78839;BME280;68405;47.190;27.558;2023-07-02T08:17:07;98791.65;;;52.13;7.41
78839;BME280;68405;47.190;27.558;2023-07-02T08:19:36;98787.40;;;50.38;8.31
78839;BME280;68405;47.190;27.558;2023-07-02T08:22:05;98786.81;;;49.36;8.60
78839;BME280;68405;47.190;27.558;2023-07-02T08:24:34;98788.62;;;49.23;9.13
78839;BME280;68405;47.190;27.558;2023-07-02T08:27:04;98788.48;;;49.01;9.31
78839;BME280;68405;47.190;27.558;2023-07-02T08:29:33;98789.96;;;48.69;9.50
78839;BME280;68405;47.190;27.558;2023-07-02T08:32:03;98793.61;;;48.12;9.66
78839;BME280;68405;47.190;27.558;2023-07-02T08:34:32;98792.42;;;47.26;9.92
78839;BME280;68405;47.190;27.558;2023-07-02T08:37:01;98790.64;;;47.16;9.96
78839;BME280;68405;47.190;27.558;2023-07-02T08:39:30;98790.36;;;47.26;10.09
78839;BME280;68405;47.190;27.558;2023-07-02T08:41:59;98787.25;;;47.39;10.13
78839;BME280;68405;47.190;27.558;2023-07-02T08:44:27;98787.27;;;47.76;10.07
78839;BME280;68405;47.190;27.558;2023-07-02T08:46:56;98785.02;;;48.09;9.92
78839;BME280;68405;47.190;27.558;2023-07-02T08:49:26;98784.43;;;48.51;9.75
78839;BME280;68405;47.190;27.558;2023-07-02T08:51:54;98785.02;;;48.84;9.49
78839;BME280;68405;47.190;27.558;2023-07-02T08:54:23;98790.55;;;49.13;9.52
78839;BME280;68405;47.190;27.558;2023-07-02T08:56:52;98789.97;;;49.35;9.62
78839;BME280;68405;47.190;27.558;2023-07-02T08:59:21;98787.66;;;49.78;9.12
78839;BME280;68405;47.190;27.558;2023-07-02T09:01:51;98784.20;;;50.21;8.80
78839;BME280;68405;47.190;27.558;2023-07-02T09:04:21;98783.34;;;50.32;8.87
78839;BME280;68405;47.190;27.558;2023-07-02T09:07:02;98782.38;;;50.25;9.19
78839;BME280;68405;47.190;27.558;2023-07-02T09:09:32;98778.78;;;50.34;8.72
78839;BME280;68405;47.190;27.558;2023-07-02T09:12:01;98775.45;;;50.17;8.72
78839;BME280;68405;47.190;27.558;2023-07-02T09:14:31;98775.14;;;49.88;8.96
78839;BME280;68405;47.190;27.558;2023-07-02T09:17:05;98777.56;;;49.81;8.97
78839;BME280;68405;47.190;27.558;2023-07-02T09:19:34;98784.13;;;49.17;9.03
78839;BME280;68405;47.190;27.558;2023-07-02T09:22:03;98780.84;;;48.49;9.26
78839;BME280;68405;47.190;27.558;2023-07-02T09:24:32;98775.80;;;48.06;9.50
78839;BME280;68405;47.190;27.558;2023-07-02T09:27:02;98771.82;;;47.52;9.94
78839;BME280;68405;47.190;27.558;2023-07-02T09:29:32;98775.59;;;47.34;10.24
78839;BME280;68405;47.190;27.558;2023-07-02T09:32:02;98776.90;;;46.95;10.26
78839;BME280;68405;47.190;27.558;2023-07-02T09:34:32;98775.86;;;46.61;10.68
78839;BME280;68405;47.190;27.558;2023-07-02T09:37:02;98769.09;;;46.51;10.72
78839;BME280;68405;47.190;27.558;2023-07-02T09:39:34;98766.52;;;46.66;10.54
78839;BME280;68405;47.190;27.558;2023-07-02T09:42:08;98769.05;;;47.04;10.68
78839;BME280;68405;47.190;27.558;2023-07-02T09:44:38;98770.50;;;46.77;10.52
78839;BME280;68405;47.190;27.558;2023-07-02T09:47:09;98768.52;;;46.71;10.49
78839;BME280;68405;47.190;27.558;2023-07-02T09:49:40;98765.23;;;46.74;10.67
78839;BME280;68405;47.190;27.558;2023-07-02T09:52:10;98761.75;;;46.93;10.37
78839;BME280;68405;47.190;27.558;2023-07-02T09:54:41;98761.79;;;46.86;10.48
78839;BME280;68405;47.190;27.558;2023-07-02T09:57:10;98759.39;;;46.72;10.47
78839;BME280;68405;47.190;27.558;2023-07-02T09:59:41;98752.44;;;46.84;10.44
78839;BME280;68405;47.190;27.558;2023-07-02T10:02:11;98752.44;;;46.69;10.75
78839;BME280;68405;47.190;27.558;2023-07-02T10:04:42;98752.00;;;46.34;10.90
78839;BME280;68405;47.190;27.558;2023-07-02T10:07:12;98750.45;;;46.10;10.82
78839;BME280;68405;47.190;27.558;2023-07-02T10:09:44;98749.23;;;45.84;11.17
78839;BME280;68405;47.190;27.558;2023-07-02T10:12:17;98749.48;;;45.16;11.54
78839;BME280;68405;47.190;27.558;2023-07-02T10:14:47;98750.15;;;44.36;11.91
78839;BME280;68405;47.190;27.558;2023-07-02T10:17:27;98754.21;;;44.16;11.91
78839;BME280;68405;47.190;27.558;2023-07-02T10:19:58;98755.91;;;43.28;12.28
78839;BME280;68405;47.190;27.558;2023-07-02T10:22:27;98753.43;;;42.36;13.30
78839;BME280;68405;47.190;27.558;2023-07-02T10:24:57;98753.42;;;41.74;13.70
78839;BME280;68405;47.190;27.558;2023-07-02T10:27:38;98748.05;;;41.15;14.20
78839;BME280;68405;47.190;27.558;2023-07-02T10:30:09;98747.91;;;41.05;14.32
78839;BME280;68405;47.190;27.558;2023-07-02T10:32:39;98749.23;;;41.00;14.59
78839;BME280;68405;47.190;27.558;2023-07-02T10:35:18;98750.52;;;40.49;14.68
78839;BME280;68405;47.190;27.558;2023-07-02T10:37:46;98745.14;;;40.28;15.10
78839;BME280;68405;47.190;27.558;2023-07-02T10:40:14;98744.52;;;40.36;15.38
78839;BME280;68405;47.190;27.558;2023-07-02T10:42:47;98747.48;;;40.69;15.32
78839;BME280;68405;47.190;27.558;2023-07-02T10:45:18;98747.66;;;40.99;15.44
78839;BME280;68405;47.190;27.558;2023-07-02T10:47:47;98740.84;;;40.58;15.60
78839;BME280;68405;47.190;27.558;2023-07-02T10:50:20;98736.03;;;40.74;15.40
78839;BME280;68405;47.190;27.558;2023-07-02T10:52:49;98735.52;;;41.33;14.92
78839;BME280;68405;47.190;27.558;2023-07-02T10:55:19;98740.82;;;41.84;14.72
78839;BME280;68405;47.190;27.558;2023-07-02T10:57:50;98739.09;;;41.82;14.47
78839;BME280;68405;47.190;27.558;2023-07-02T11:00:20;98730.50;;;41.92;14.51
78839;BME280;68405;47.190;27.558;2023-07-02T11:02:49;98726.47;;;42.39;13.96
78839;BME280;68405;47.190;27.558;2023-07-02T11:05:18;98722.95;;;42.68;13.86
78839;BME280;68405;47.190;27.558;2023-07-02T11:07:47;98722.61;;;42.90;13.98
78839;BME280;68405;47.190;27.558;2023-07-02T11:10:20;98720.92;;;43.08;13.79
78839;BME280;68405;47.190;27.558;2023-07-02T11:12:49;98717.03;;;42.92;13.77
78839;BME280;68405;47.190;27.558;2023-07-02T11:15:18;98719.75;;;42.83;13.73
78839;BME280;68405;47.190;27.558;2023-07-02T11:17:47;98716.37;;;42.59;13.86
78839;BME280;68405;47.190;27.558;2023-07-02T11:20:16;98709.29;;;42.37;14.01
78839;BME280;68405;47.190;27.558;2023-07-02T11:22:45;98706.89;;;42.17;14.39
78839;BME280;68405;47.190;27.558;2023-07-02T11:25:18;98707.77;;;41.91;14.67
78839;BME280;68405;47.190;27.558;2023-07-02T11:27:48;98707.30;;;41.83;14.76
78839;BME280;68405;47.190;27.558;2023-07-02T11:30:16;98710.42;;;41.81;14.76
78839;BME280;68405;47.190;27.558;2023-07-02T11:32:50;98713.23;;;41.61;14.66
78839;BME280;68405;47.190;27.558;2023-07-02T11:35:20;98702.17;;;41.72;14.47
78839;BME280;68405;47.190;27.558;2023-07-02T11:37:49;98699.05;;;41.97;14.43
78839;BME280;68405;47.190;27.558;2023-07-02T11:40:19;98701.14;;;42.07;14.56
78839;BME280;68405;47.190;27.558;2023-07-02T11:42:48;98696.68;;;41.35;14.80
78839;BME280;68405;47.190;27.558;2023-07-02T11:45:17;98693.50;;;40.42;15.36
78839;BME280;68405;47.190;27.558;2023-07-02T11:47:46;98686.01;;;39.76;15.29
78839;BME280;68405;47.190;27.558;2023-07-02T11:50:16;98685.48;;;39.62;15.54
78839;BME280;68405;47.190;27.558;2023-07-02T11:52:45;98685.42;;;39.55;15.95
78839;BME280;68405;47.190;27.558;2023-07-02T11:55:13;98687.61;;;39.53;16.42
78839;BME280;68405;47.190;27.558;2023-07-02T11:57:42;98691.87;;;39.48;16.58
78839;BME280;68405;47.190;27.558;2023-07-02T12:00:12;98687.83;;;39.39;16.10
78839;BME280;68405;47.190;27.558;2023-07-02T12:02:41;98687.66;;;39.47;15.54
78839;BME280;68405;47.190;27.558;2023-07-02T12:05:10;98689.20;;;39.98;15.49
78839;BME280;68405;47.190;27.558;2023-07-02T12:07:39;98690.59;;;40.47;15.28
78839;BME280;68405;47.190;27.558;2023-07-02T12:10:09;98690.89;;;40.97;14.87
78839;BME280;68405;47.190;27.558;2023-07-02T12:12:38;98690.70;;;40.92;14.97
78839;BME280;68405;47.190;27.558;2023-07-02T12:15:08;98686.80;;;40.53;14.98
78839;BME280;68405;47.190;27.558;2023-07-02T12:17:37;98688.59;;;40.27;15.15
78839;BME280;68405;47.190;27.558;2023-07-02T12:20:08;98688.33;;;40.38;15.38
78839;BME280;68405;47.190;27.558;2023-07-02T12:22:37;98690.25;;;40.76;14.92
78839;BME280;68405;47.190;27.558;2023-07-02T12:25:07;98689.34;;;40.91;14.78
78839;BME280;68405;47.190;27.558;2023-07-02T12:27:37;98688.17;;;40.52;14.89
78839;BME280;68405;47.190;27.558;2023-07-02T12:30:09;98690.30;;;40.38;15.20
78839;BME280;68405;47.190;27.558;2023-07-02T12:32:39;98686.95;;;40.31;15.29
78839;BME280;68405;47.190;27.558;2023-07-02T12:35:09;98688.14;;;40.18;15.92
78839;BME280;68405;47.190;27.558;2023-07-02T12:37:45;98687.52;;;39.99;15.72
78839;BME280;68405;47.190;27.558;2023-07-02T12:40:15;98682.08;;;39.89;15.65
78839;BME280;68405;47.190;27.558;2023-07-02T12:42:44;98682.37;;;39.75;15.69
78839;BME280;68405;47.190;27.558;2023-07-02T12:45:14;98679.39;;;39.69;15.71
78839;BME280;68405;47.190;27.558;2023-07-02T12:47:43;98681.49;;;39.65;15.97
78839;BME280;68405;47.190;27.558;2023-07-02T12:50:12;98680.90;;;39.65;15.79
78839;BME280;68405;47.190;27.558;2023-07-02T12:52:41;98679.98;;;39.69;15.65
78839;BME280;68405;47.190;27.558;2023-07-02T12:55:10;98673.69;;;39.84;15.77
78839;BME280;68405;47.190;27.558;2023-07-02T12:57:39;98672.86;;;39.85;15.29
78839;BME280;68405;47.190;27.558;2023-07-02T13:00:10;98668.69;;;39.68;15.17
78839;BME280;68405;47.190;27.558;2023-07-02T13:02:39;98664.65;;;39.61;15.14
78839;BME280;68405;47.190;27.558;2023-07-02T13:05:09;98664.50;;;39.60;15.36